Time;durP1;ratioP1;P1;durP2;ratioP2;P2;SDS_P1;SDS_P2;PMS_P1;PMS_P2;Temp;Humidity;BMP_temperature;BMP_pressure;BME280_temperature;BME280_humidity;BME280_pressure;Samples;Min_cycle;Max_cycle;Signal;HPM_P1;HPM_P2
2023/08/06 00:00:13;;;;;;;;;;;;;;;17.29;79.16;100592.34;107208;1257;67040;-88
2023/08/06 00:03:25;;;;;;;;;;;;;;;17.33;79.19;100586.29;107245;1257;124610;-88
2023/08/06 00:06:11;;;;;;;;;;;;;;;17.36;79.17;100575.98;107259;1261;60343;-89
2023/08/06 00:08:40;;;;;;;;;;;;;;;17.37;79.21;100566.92;106989;1260;125350;-87
2023/08/06 00:11:26;;;;;;;;;;;;;;;17.39;79.34;100572.95;107196;1259;74728;-88
2023/08/06 00:13:55;;;;;;;;;;;;;;;17.41;79.43;100576.48;107028;1259;125298;-88
2023/08/06 00:16:22;;;;;;;;;;;;;;;17.43;79.41;100577.18;107349;1259;72298;-88
2023/08/06 00:18:52;;;;;;;;;;;;;;;17.46;79.54;100581.77;107032;1260;125146;-88
2023/08/06 00:21:19;;;;;;;;;;;;;;;17.47;79.72;100584.78;107141;1257;61285;-88
2023/08/06 00:27:42;;;;;;;;;;;;;;;17.48;80.02;100572.01;107222;1259;69630;-89
2023/08/06 00:30:45;;;;;;;;;;;;;;;17.48;80.09;100572.89;107104;1259;74011;-89
2023/08/06 00:33:14;;;;;;;;;;;;;;;17.48;80.51;100566.31;107508;1261;61356;-87
2023/08/06 00:35:56;;;;;;;;;;;;;;;17.49;80.46;100560.81;107429;1260;59963;-89
2023/08/06 00:38:30;;;;;;;;;;;;;;;17.51;80.41;100555.84;107474;1257;124782;-86
2023/08/06 00:40:58;;;;;;;;;;;;;;;17.53;80.36;100553.16;107293;1259;67402;-87
2023/08/06 00:43:31;;;;;;;;;;;;;;;17.53;80.46;100560.27;107561;1259;124974;-87
2023/08/06 00:45:58;;;;;;;;;;;;;;;17.52;80.34;100553.17;107343;1261;59578;-86
2023/08/06 00:48:25;;;;;;;;;;;;;;;17.52;80.23;100545.89;107530;1258;61105;-85
2023/08/06 00:51:17;;;;;;;;;;;;;;;17.51;79.92;100536.85;107182;1260;125084;-86
2023/08/06 00:54:01;;;;;;;;;;;;;;;17.49;79.44;100515.23;107389;1259;66882;-87
2023/08/06 00:56:31;;;;;;;;;;;;;;;17.49;79.34;100501.21;107063;1259;123652;-89
2023/08/06 00:59:00;;;;;;;;;;;;;;;17.50;79.30;100503.69;107027;1265;60024;-87
2023/08/06 01:01:35;;;;;;;;;;;;;;;17.49;79.27;100495.71;107163;1260;125199;-87
2023/08/06 01:04:05;;;;;;;;;;;;;;;17.47;79.11;100501.40;107354;1260;73567;-87
2023/08/06 01:06:33;;;;;;;;;;;;;;;17.45;79.07;100502.65;107390;1259;65640;-88
2023/08/06 01:09:08;;;;;;;;;;;;;;;17.47;79.08;100504.42;107544;1257;124755;-87
2023/08/06 01:11:35;;;;;;;;;;;;;;;17.47;79.19;100493.06;107553;1259;61250;-88
2023/08/06 01:14:25;;;;;;;;;;;;;;;17.46;79.34;100485.98;107415;1258;124796;-87
2023/08/06 01:16:54;;;;;;;;;;;;;;;17.44;79.27;100480.32;107529;1260;73166;-87
2023/08/06 01:19:21;;;;;;;;;;;;;;;17.42;79.28;100473.41;107413;1261;125227;-87
2023/08/06 01:21:55;;;;;;;;;;;;;;;17.43;79.33;100461.70;107371;1260;72775;-88
2023/08/06 01:24:22;;;;;;;;;;;;;;;17.44;79.37;100456.55;107462;1257;61293;-88
2023/08/06 01:27:24;;;;;;;;;;;;;;;17.41;79.55;100454.80;107156;1257;124828;-88
2023/08/06 01:29:57;;;;;;;;;;;;;;;17.42;79.44;100457.27;107351;1259;72825;-88
2023/08/06 01:32:34;;;;;;;;;;;;;;;17.42;79.52;100465.80;107212;1258;124909;-88
2023/08/06 01:35:10;;;;;;;;;;;;;;;17.41;79.60;100460.83;107258;1262;71476;-88
2023/08/06 01:38:00;;;;;;;;;;;;;;;17.42;79.73;100462.78;107108;1257;123854;-88
2023/08/06 01:40:46;;;;;;;;;;;;;;;17.38;79.70;100455.88;107193;1257;61284;-88
2023/08/06 01:43:28;;;;;;;;;;;;;;;17.40;79.60;100446.46;107347;1257;124996;-89
2023/08/06 01:46:02;;;;;;;;;;;;;;;17.37;79.52;100444.89;107722;1257;66454;-87
2023/08/06 01:48:38;;;;;;;;;;;;;;;17.35;79.46;100437.65;107264;1258;73633;-88
2023/08/06 01:54:56;;;;;;;;;;;;;;;17.22;79.75;100425.67;106965;1259;61276;-90
2023/08/06 01:58:07;;;;;;;;;;;;;;;17.13;79.91;100419.02;107242;1260;76337;-90
2023/08/06 02:07:48;;;;;;;;;;;;;;;16.91;80.31;100414.73;107023;1259;125638;-88
2023/08/06 02:17:07;;;;;;;;;;;;;;;16.45;81.81;100382.00;107191;1262;67106;-89
2023/08/06 02:19:35;;;;;;;;;;;;;;;16.31;82.38;100369.14;107035;1262;125172;-88
2023/08/06 02:22:25;;;;;;;;;;;;;;;16.17;83.46;100359.65;107164;1262;61224;-87
2023/08/06 02:24:53;;;;;;;;;;;;;;;16.01;83.93;100353.34;107029;1263;61239;-88
2023/08/06 02:27:42;;;;;;;;;;;;;;;15.90;84.67;100349.13;107513;1262;74568;-90
2023/08/06 02:30:36;;;;;;;;;;;;;;;15.82;84.82;100342.79;107343;1262;65834;-88
2023/08/06 02:33:09;;;;;;;;;;;;;;;15.78;85.36;100336.77;106938;1262;124876;-89
2023/08/06 02:35:38;;;;;;;;;;;;;;;15.75;85.78;100330.95;107235;1262;59706;-89
2023/08/06 02:38:31;;;;;;;;;;;;;;;15.72;86.26;100333.23;107689;1261;123800;-86
2023/08/06 02:41:07;;;;;;;;;;;;;;;15.71;86.83;100325.27;107014;1262;73732;-88
2023/08/06 02:43:35;;;;;;;;;;;;;;;15.68;87.36;100310.94;106977;1262;125072;-88
2023/08/06 02:46:02;;;;;;;;;;;;;;;15.67;87.82;100311.13;107429;1262;71363;-89
2023/08/06 02:48:31;;;;;;;;;;;;;;;15.66;87.86;100310.42;108018;1262;61334;-88
2023/08/06 02:50:59;;;;;;;;;;;;;;;15.67;87.97;100307.77;107580;1262;125225;-87
2023/08/06 02:53:26;;;;;;;;;;;;;;;15.68;88.29;100304.93;107192;1262;73560;-88
2023/08/06 02:55:55;;;;;;;;;;;;;;;15.66;88.44;100297.33;107520;1262;124835;-88
2023/08/06 02:58:24;;;;;;;;;;;;;;;15.65;89.49;100282.13;107334;1258;73061;-87
2023/08/06 03:01:05;;;;;;;;;;;;;;;15.61;92.72;100277.19;107487;1259;61256;-88
2023/08/06 03:06:45;;;;;;;;;;;;;;;15.56;95.45;100234.58;107781;1259;73036;-88
2023/08/06 03:09:13;;;;;;;;;;;;;;;15.56;94.45;100203.10;107516;1259;125145;-88
2023/08/06 03:11:42;;;;;;;;;;;;;;;15.62;95.40;100171.05;107607;1258;71469;-86
2023/08/06 03:14:48;;;;;;;;;;;;;;;15.66;95.91;100131.59;107536;1264;125197;-86
2023/08/06 03:17:15;;;;;;;;;;;;;;;15.73;95.41;100060.29;107381;1260;61141;-85
2023/08/06 03:19:54;;;;;;;;;;;;;;;15.78;96.45;100007.56;107222;1260;123881;-85
2023/08/06 03:22:33;;;;;;;;;;;;;;;15.84;96.40;100009.09;107411;1257;66538;-85
2023/08/06 03:25:01;;;;;;;;;;;;;;;15.93;95.96;100038.05;107319;1257;124915;-86
2023/08/06 03:27:35;;;;;;;;;;;;;;;16.00;96.12;100063.29;107289;1262;61231;-87
2023/08/06 03:30:20;;;;;;;;;;;;;;;16.04;95.87;100066.09;107590;1257;59284;-86
2023/08/06 03:32:52;;;;;;;;;;;;;;;16.10;95.72;100052.22;107172;1259;124782;-86
2023/08/06 03:35:22;;;;;;;;;;;;;;;16.12;95.75;100063.70;107256;1259;65569;-85
2023/08/06 03:37:49;;;;;;;;;;;;;;;16.17;95.68;100090.05;107082;1258;123826;-85
2023/08/06 03:40:21;;;;;;;;;;;;;;;16.21;95.74;100106.13;107543;1258;61369;-86
2023/08/06 03:42:48;;;;;;;;;;;;;;;16.22;96.00;100127.88;107418;1259;61395;-86
2023/08/06 03:45:15;;;;;;;;;;;;;;;16.25;96.06;100122.20;107092;1257;125217;-85
2023/08/06 03:47:44;;;;;;;;;;;;;;;16.30;96.22;100127.64;107398;1257;65631;-86
2023/08/06 03:50:20;;;;;;;;;;;;;;;16.37;96.34;100130.23;107334;1259;125632;-86
2023/08/06 03:52:48;;;;;;;;;;;;;;;16.42;96.48;100133.02;107262;1258;61392;-85
2023/08/06 03:55:15;;;;;;;;;;;;;;;16.48;96.67;100132.98;107454;1259;125334;-86
2023/08/06 03:57:57;;;;;;;;;;;;;;;16.52;96.62;100120.20;107381;1260;73394;-87
2023/08/06 04:00:38;;;;;;;;;;;;;;;16.57;96.61;100102.61;107499;1257;67418;-87
2023/08/06 04:03:05;;;;;;;;;;;;;;;16.59;96.81;100093.20;107501;1257;124831;-86
2023/08/06 04:05:35;;;;;;;;;;;;;;;16.61;96.68;100087.51;107311;1260;61223;-85
2023/08/06 04:08:02;;;;;;;;;;;;;;;16.64;96.96;100090.48;107094;1260;124949;-85
2023/08/06 04:10:36;;;;;;;;;;;;;;;16.66;96.95;100092.23;107603;1259;73348;-86
2023/08/06 04:13:03;;;;;;;;;;;;;;;16.68;97.14;100078.58;107434;1259;124836;-87
2023/08/06 04:15:33;;;;;;;;;;;;;;;16.71;97.23;100072.16;107550;1259;70773;-87
2023/08/06 04:18:01;;;;;;;;;;;;;;;16.74;97.11;100069.11;107363;1257;61319;-86
2023/08/06 04:20:30;;;;;;;;;;;;;;;16.75;97.21;100060.43;107276;1257;124801;-85
2023/08/06 04:23:11;;;;;;;;;;;;;;;16.77;97.31;100055.26;107264;1258;73474;-85
2023/08/06 04:25:48;;;;;;;;;;;;;;;16.80;97.45;100061.79;107497;1259;123825;-85
2023/08/06 04:28:15;;;;;;;;;;;;;;;16.84;97.48;100061.77;107786;1259;71842;-86
2023/08/06 04:30:42;;;;;;;;;;;;;;;16.83;97.42;100049.90;107498;1257;60264;-86
2023/08/06 04:33:21;;;;;;;;;;;;;;;16.86;97.58;100031.27;107244;1262;125189;-85
2023/08/06 04:36:04;;;;;;;;;;;;;;;16.85;97.60;100006.13;107361;1257;73764;-86
2023/08/06 04:38:37;;;;;;;;;;;;;;;16.88;97.66;99982.50;107370;1262;125626;-88
2023/08/06 04:41:09;;;;;;;;;;;;;;;16.89;97.65;99980.20;107278;1261;70468;-88
2023/08/06 04:43:45;;;;;;;;;;;;;;;16.91;97.96;100001.96;107258;1258;124825;-88
2023/08/06 04:46:14;;;;;;;;;;;;;;;16.94;98.08;100002.64;107472;1257;60019;-89
2023/08/06 04:48:44;;;;;;;;;;;;;;;16.97;98.05;100012.35;107118;1263;74640;-88
2023/08/06 04:51:29;;;;;;;;;;;;;;;16.99;98.27;100018.34;107090;1258;124878;-88
2023/08/06 04:57:25;;;;;;;;;;;;;;;16.94;98.11;100010.80;107293;1257;124584;-89
2023/08/06 04:59:54;;;;;;;;;;;;;;;16.93;98.14;100013.29;107310;1258;61229;-87
2023/08/06 05:02:37;;;;;;;;;;;;;;;16.96;98.36;100013.77;107365;1259;125060;-88
2023/08/06 05:05:06;;;;;;;;;;;;;;;16.97;98.38;100009.67;107424;1257;67066;-86
2023/08/06 05:07:33;;;;;;;;;;;;;;;16.99;98.36;100012.50;107189;1257;123898;-89
2023/08/06 05:10:04;;;;;;;;;;;;;;;16.99;98.31;100016.94;107267;1262;61153;-86
2023/08/06 05:12:31;;;;;;;;;;;;;;;17.00;98.51;100012.84;107291;1259;61196;-86
2023/08/06 05:14:59;;;;;;;;;;;;;;;17.02;98.65;99988.88;107000;1259;123977;-88
2023/08/06 05:17:45;;;;;;;;;;;;;;;17.02;98.62;99973.98;107353;1259;64730;-87
2023/08/06 05:20:27;;;;;;;;;;;;;;;17.03;98.81;99973.97;107236;1257;124873;-89
2023/08/06 05:22:58;;;;;;;;;;;;;;;17.03;98.78;99992.42;107190;1258;61854;-87
2023/08/06 05:25:26;;;;;;;;;;;;;;;17.04;98.80;99995.60;106945;1259;124832;-88
2023/08/06 05:28:01;;;;;;;;;;;;;;;17.04;98.83;99986.38;106980;1259;73803;-87
2023/08/06 05:30:44;;;;;;;;;;;;;;;17.05;99.02;99952.85;107168;1259;64783;-86
2023/08/06 05:33:23;;;;;;;;;;;;;;;17.08;99.14;99945.73;106978;1257;124563;-87
2023/08/06 05:36:09;;;;;;;;;;;;;;;17.06;99.07;99936.35;107279;1257;61320;-90
2023/08/06 05:38:38;;;;;;;;;;;;;;;17.05;99.25;99915.99;107241;1257;124880;-86
2023/08/06 05:41:14;;;;;;;;;;;;;;;17.02;99.47;99935.90;107285;1258;75083;-86
2023/08/06 05:43:49;;;;;;;;;;;;;;;17.06;99.47;99933.70;107426;1259;124750;-90
2023/08/06 05:46:17;;;;;;;;;;;;;;;17.07;99.47;99893.81;107614;1259;72781;-88
2023/08/06 05:48:46;;;;;;;;;;;;;;;17.09;99.72;99857.96;107239;1260;59736;-89
2023/08/06 05:51:16;;;;;;;;;;;;;;;17.09;99.86;99814.54;107042;1258;124959;-89
2023/08/06 05:53:43;;;;;;;;;;;;;;;17.11;99.98;99800.33;107228;1265;73247;-88
2023/08/06 05:56:16;;;;;;;;;;;;;;;17.18;100.00;99838.69;107316;1259;124949;-92
2023/08/06 05:58:47;;;;;;;;;;;;;;;17.19;100.00;99869.33;107307;1257;71156;-88
2023/08/06 06:01:15;;;;;;;;;;;;;;;17.21;100.00;99876.56;106955;1258;125167;-90
2023/08/06 06:03:55;;;;;;;;;;;;;;;17.20;100.00;99874.45;107250;1257;61304;-92
2023/08/06 06:06:45;;;;;;;;;;;;;;;17.21;100.00;99884.90;107081;1265;74686;-90
2023/08/06 06:09:18;;;;;;;;;;;;;;;17.24;100.00;99899.04;107531;1257;124970;-89
2023/08/06 06:11:52;;;;;;;;;;;;;;;17.26;100.00;99905.91;107583;1257;72557;-90
2023/08/06 06:14:41;;;;;;;;;;;;;;;17.31;100.00;99900.00;107716;1258;124862;-92
2023/08/06 06:17:13;;;;;;;;;;;;;;;17.33;100.00;99882.77;99745;1259;10195839;-88
2023/08/06 06:19:53;;;;;;;;;;;;;;;17.37;100.00;99877.20;107589;1259;125600;-91
2023/08/06 06:28:38;;;;;;;;;;;;;;;17.50;100.00;99903.77;107563;1260;60904;-89
2023/08/06 06:31:38;;;;;;;;;;;;;;;17.55;100.00;99913.95;107411;1259;125216;-91
2023/08/06 06:34:15;;;;;;;;;;;;;;;17.61;100.00;99905.34;107333;1259;66285;-93
2023/08/06 06:36:58;;;;;;;;;;;;;;;17.70;100.00;99884.95;107237;1259;73255;-92
2023/08/06 06:39:44;;;;;;;;;;;;;;;17.82;100.00;99866.13;107278;1258;61204;-83
2023/08/06 06:42:17;;;;;;;;;;;;;;;17.91;100.00;99854.77;107225;1258;61260;-85
2023/08/06 06:45:05;;;;;;;;;;;;;;;17.95;100.00;99848.52;106924;1263;123823;-85
2023/08/06 06:47:43;;;;;;;;;;;;;;;18.03;100.00;99836.08;107224;1261;67082;-86
2023/08/06 06:50:12;;;;;;;;;;;;;;;18.07;100.00;99827.12;107133;1259;124913;-85
2023/08/06 06:52:46;;;;;;;;;;;;;;;18.14;100.00;99821.65;107229;1259;59260;-86
2023/08/06 06:55:37;;;;;;;;;;;;;;;18.23;100.00;99814.35;107461;1259;125833;-86
2023/08/06 06:58:13;;;;;;;;;;;;;;;18.39;100.00;99805.50;107493;1258;73738;-86
2023/08/06 07:00:41;;;;;;;;;;;;;;;18.47;100.00;99806.38;107445;1259;66140;-87
2023/08/06 07:03:22;;;;;;;;;;;;;;;18.55;100.00;99799.09;107519;1260;124952;-90
2023/08/06 07:05:53;;;;;;;;;;;;;;;18.67;100.00;99789.38;107438;1257;59624;-87
2023/08/06 07:08:21;;;;;;;;;;;;;;;18.91;100.00;99790.27;107492;1259;124756;-89
2023/08/06 07:10:51;;;;;;;;;;;;;;;19.09;100.00;99786.29;107232;1261;74751;-88
2023/08/06 07:13:18;;;;;;;;;;;;;;;19.21;100.00;99778.33;107256;1259;125228;-88
2023/08/06 07:15:45;;;;;;;;;;;;;;;19.33;99.60;99774.63;107335;1259;71609;-85
2023/08/06 07:18:31;;;;;;;;;;;;;;;19.39;98.98;99774.64;107250;1260;61255;-90
2023/08/06 07:21:08;;;;;;;;;;;;;;;19.43;98.38;99769.39;107054;1258;124718;-89
2023/08/06 07:23:46;;;;;;;;;;;;;;;19.50;98.13;99773.98;107078;1257;74422;-91
2023/08/06 07:26:16;;;;;;;;;;;;;;;19.50;97.38;99773.81;107022;1259;125136;-90
2023/08/06 07:28:44;;;;;;;;;;;;;;;19.46;97.19;99771.08;107321;1260;71506;-86
2023/08/06 07:31:13;;;;;;;;;;;;;;;19.40;96.78;99764.64;107097;1259;125065;-90
2023/08/06 07:33:59;;;;;;;;;;;;;;;19.38;96.94;99755.45;107693;1259;61173;-90
2023/08/06 07:36:50;;;;;;;;;;;;;;;19.38;96.75;99751.36;107992;1259;75443;-90
2023/08/06 07:39:33;;;;;;;;;;;;;;;19.34;96.50;99740.79;106789;1267;65898;-90
2023/08/06 07:42:04;;;;;;;;;;;;;;;19.32;96.44;99735.34;106652;1270;72735;-90
2023/08/06 07:44:52;;;;;;;;;;;;;;;19.31;96.56;99728.42;106667;1265;124040;-89
2023/08/06 07:47:30;;;;;;;;;;;;;;;19.32;96.63;99719.52;106803;1267;59737;-88
2023/08/06 07:49:59;;;;;;;;;;;;;;;19.32;96.36;99712.41;106673;1270;124820;-88
2023/08/06 07:52:55;;;;;;;;;;;;;;;19.30;96.26;99704.64;106725;1265;65725;-90
2023/08/06 07:56:04;;;;;;;;;;;;;;;19.34;96.60;99696.87;106474;1265;123985;-95
2023/08/06 07:58:39;;;;;;;;;;;;;;;19.38;96.48;99681.09;107201;1267;61339;-91
2023/08/06 08:01:21;;;;;;;;;;;;;;;19.51;96.65;99673.27;106601;1268;61210;-85
2023/08/06 08:03:50;;;;;;;;;;;;;;;19.69;96.75;99673.80;106893;1268;74805;-85
2023/08/06 08:06:33;;;;;;;;;;;;;;;19.79;96.04;99671.58;107024;1268;65628;-85
2023/08/06 08:09:14;;;;;;;;;;;;;;;19.84;95.76;99666.80;106881;1265;125143;-87
2023/08/06 08:11:47;;;;;;;;;;;;;;;19.87;95.47;99660.84;106904;1265;61134;-91
2023/08/06 08:14:15;;;;;;;;;;;;;;;19.85;95.22;99660.01;106674;1268;125093;-86
2023/08/06 08:16:42;;;;;;;;;;;;;;;19.88;95.11;99653.86;106971;1259;74740;-86
2023/08/06 08:19:09;;;;;;;;;;;;;;;19.89;95.00;99648.30;107368;1259;67185;-86
2023/08/06 08:31:24;;;;;;;;;;;;;;;19.90;94.66;99629.05;107411;1259;76896;-87
2023/08/06 08:37:14;;;;;;;;;;;;;;;20.02;94.61;99625.11;109029;1258;71246;-88
2023/08/06 08:39:53;;;;;;;;;;;;;;;20.02;94.08;99624.95;107291;1259;124781;-87
2023/08/06 08:42:25;;;;;;;;;;;;;;;20.04;94.36;99622.90;108189;1259;60184;-86
2023/08/06 08:44:52;;;;;;;;;;;;;;;20.08;94.17;99619.74;106981;1259;124911;-88
2023/08/06 08:47:19;;;;;;;;;;;;;;;20.09;94.11;99607.45;107810;1259;68595;-88
2023/08/06 08:49:56;;;;;;;;;;;;;;;20.09;93.88;99597.80;106942;1259;124798;-85
2023/08/06 08:52:24;;;;;;;;;;;;;;;20.09;93.96;99586.58;107104;1259;59828;-85
2023/08/06 08:54:54;;;;;;;;;;;;;;;20.13;94.12;99580.58;106855;1259;61215;-85
2023/08/06 08:57:32;;;;;;;;;;;;;;;20.12;93.74;99573.33;106951;1265;125184;-87
2023/08/06 09:00:08;;;;;;;;;;;;;;;20.09;93.73;99562.03;107256;1259;66116;-84
2023/08/06 09:02:38;;;;;;;;;;;;;;;20.06;93.55;99558.38;107101;1259;125194;-84
2023/08/06 09:05:08;;;;;;;;;;;;;;;20.04;93.68;99548.82;107066;1264;61314;-86
2023/08/06 09:07:55;;;;;;;;;;;;;;;20.03;93.51;99539.95;107075;1259;125327;-85
2023/08/06 09:10:25;;;;;;;;;;;;;;;20.04;93.93;99532.09;107179;1258;74483;-84
2023/08/06 09:13:13;;;;;;;;;;;;;;;20.12;94.16;99531.65;107208;1262;66864;-85
2023/08/06 09:15:44;;;;;;;;;;;;;;;20.13;93.62;99536.77;107192;1260;124531;-84
2023/08/06 09:18:12;;;;;;;;;;;;;;;20.15;93.73;99539.90;107112;1257;61163;-85
2023/08/06 09:20:53;;;;;;;;;;;;;;;20.20;93.71;99540.83;106972;1260;125332;-84
2023/08/06 09:23:33;;;;;;;;;;;;;;;20.34;94.01;99536.23;107041;1259;74541;-84
2023/08/06 09:26:09;;;;;;;;;;;;;;;20.55;93.84;99538.20;107040;1263;125244;-85
2023/08/06 09:28:45;;;;;;;;;;;;;;;20.65;93.38;99531.79;106955;1265;72726;-85
2023/08/06 09:31:13;;;;;;;;;;;;;;;20.71;93.07;99531.05;107052;1262;59715;-84
2023/08/06 09:33:40;;;;;;;;;;;;;;;20.72;92.70;99528.16;106909;1260;124712;-85
2023/08/06 09:36:12;;;;;;;;;;;;;;;20.72;92.33;99531.21;107076;1259;73531;-86
2023/08/06 09:38:41;;;;;;;;;;;;;;;20.71;92.44;99522.52;106878;1259;124747;-84
2023/08/06 09:41:25;;;;;;;;;;;;;;;20.73;92.36;99521.89;107055;1260;73091;-85
2023/08/06 09:44:01;;;;;;;;;;;;;;;20.67;92.06;99518.89;106766;1259;124931;-85
2023/08/06 09:46:28;;;;;;;;;;;;;;;20.65;92.22;99522.55;106965;1260;61215;-86
2023/08/06 09:48:55;;;;;;;;;;;;;;;20.67;92.33;99523.01;106967;1259;72734;-85
2023/08/06 09:51:31;;;;;;;;;;;;;;;20.73;92.66;99523.30;106905;1260;124730;-85
2023/08/06 09:54:18;;;;;;;;;;;;;;;20.77;92.40;99516.59;107033;1264;72693;-85
2023/08/06 09:57:00;;;;;;;;;;;;;;;20.75;92.29;99518.06;106854;1260;126315;-84
2023/08/06 09:59:32;;;;;;;;;;;;;;;20.75;92.12;99509.84;107340;1260;61291;-85
2023/08/06 10:02:04;;;;;;;;;;;;;;;20.79;92.10;99510.78;107329;1259;126311;-86
2023/08/06 10:04:31;;;;;;;;;;;;;;;20.81;92.04;99508.75;107093;1257;65790;-87
2023/08/06 10:07:04;;;;;;;;;;;;;;;20.85;92.19;99507.01;107182;1260;72741;-85
2023/08/06 10:09:31;;;;;;;;;;;;;;;20.90;92.00;99504.84;107001;1260;124633;-84
2023/08/06 10:12:14;;;;;;;;;;;;;;;20.94;92.02;99500.41;107480;1258;60444;-84
2023/08/06 10:14:44;;;;;;;;;;;;;;;20.96;91.92;99502.29;107371;1259;123836;-85
2023/08/06 10:17:11;;;;;;;;;;;;;;;20.98;91.74;99494.38;107303;1264;66855;-84
2023/08/06 10:19:56;;;;;;;;;;;;;;;21.01;91.70;99486.81;106992;1260;124851;-84
2023/08/06 10:22:43;;;;;;;;;;;;;;;21.03;91.75;99481.90;107058;1259;61100;-86
2023/08/06 10:25:20;;;;;;;;;;;;;;;21.11;91.76;99477.30;106964;1260;61164;-85
2023/08/06 10:27:54;;;;;;;;;;;;;;;21.16;91.58;99473.91;107150;1261;124699;-87
2023/08/06 10:30:53;;;;;;;;;;;;;;;21.21;91.62;99466.74;107428;1260;66895;-87
2023/08/06 10:33:39;;;;;;;;;;;;;;;21.26;91.34;99460.30;107451;1262;125004;-87
2023/08/06 10:36:09;;;;;;;;;;;;;;;21.30;91.41;99448.89;107273;1259;61122;-88
2023/08/06 10:38:54;;;;;;;;;;;;;;;21.42;91.47;99442.53;107087;1259;124896;-88
2023/08/06 10:41:28;;;;;;;;;;;;;;;21.56;91.23;99433.27;107087;1261;73217;-89
2023/08/06 10:44:16;;;;;;;;;;;;;;;21.76;91.50;99415.64;106900;1260;125095;-91
2023/08/06 10:47:23;;;;;;;;;;;;;;;22.16;91.00;99407.48;107198;1265;74410;-89
2023/08/06 10:49:59;;;;;;;;;;;;;;;22.48;90.97;99404.67;107027;1259;125228;-87
2023/08/06 10:55:42;;;;;;;;;;;;;;;23.35;89.73;99395.73;107104;1259;125042;-86
2023/08/06 10:58:11;;;;;;;;;;;;;;;23.63;88.88;99394.56;107071;1261;65719;-88
2023/08/06 11:00:38;;;;;;;;;;;;;;;23.91;88.58;99387.58;107730;1259;72921;-87
2023/08/06 11:03:05;;;;;;;;;;;;;;;24.27;88.07;99387.16;107389;1259;124144;-86
2023/08/06 11:05:34;;;;;;;;;;;;;;;24.53;86.65;99385.97;107521;1263;60785;-87
2023/08/06 11:08:04;;;;;;;;;;;;;;;24.59;85.40;99383.30;107564;1259;125077;-87
2023/08/06 11:10:36;;;;;;;;;;;;;;;24.62;84.83;99381.86;107080;1259;65777;-88
2023/08/06 11:16:25;;;;;;;;;;;;;;;24.73;83.87;99379.33;107386;1261;61114;-87
2023/08/06 11:19:03;;;;;;;;;;;;;;;24.72;83.40;99374.33;107198;1264;61757;-88
2023/08/06 11:25:11;;;;;;;;;;;;;;;24.54;82.41;99368.31;107139;1259;66194;-88
2023/08/06 11:27:48;;;;;;;;;;;;;;;24.45;82.68;99369.13;107201;1264;124753;-88
2023/08/06 11:30:16;;;;;;;;;;;;;;;24.40;82.49;99365.46;107155;1261;59760;-88
2023/08/06 11:32:54;;;;;;;;;;;;;;;24.50;83.01;99362.63;106959;1266;125187;-90
2023/08/06 11:35:23;;;;;;;;;;;;;;;24.61;82.38;99364.00;106764;1259;74439;-86
2023/08/06 11:38:10;;;;;;;;;;;;;;;24.65;82.09;99364.30;106977;1263;125417;-89
2023/08/06 11:40:38;;;;;;;;;;;;;;;24.83;82.05;99356.70;107285;1260;72425;-92
2023/08/06 11:57:35;;;;;;;;;;;;;;;25.93;79.70;99337.37;107414;1261;124086;-92
2023/08/06 12:00:12;;;;;;;;;;;;;;;25.99;79.22;99331.65;107114;1266;61268;-89
2023/08/06 12:02:56;;;;;;;;;;;;;;;26.01;78.70;99322.88;107356;1261;124037;-94
2023/08/06 12:05:33;;;;;;;;;;;;;;;25.83;77.90;99322.36;107606;1260;75273;-92
2023/08/06 12:08:11;;;;;;;;;;;;;;;25.58;77.67;99321.67;107191;1260;124871;-90
2023/08/06 12:10:53;;;;;;;;;;;;;;;25.42;77.87;99312.73;107468;1259;71714;-92
2023/08/06 12:13:28;;;;;;;;;;;;;;;25.57;78.23;99308.10;107538;1260;61199;-92
2023/08/06 12:15:58;;;;;;;;;;;;;;;25.68;78.15;99305.80;107393;1259;125012;-92
2023/08/06 12:18:31;;;;;;;;;;;;;;;25.87;77.90;99296.93;107501;1259;74691;-92
2023/08/06 12:24:25;;;;;;;;;;;;;;;25.90;77.24;99286.16;107381;1260;71909;-92
2023/08/06 12:30:21;;;;;;;;;;;;;;;26.30;77.11;99273.07;107421;1264;59818;-89
2023/08/06 12:32:57;;;;;;;;;;;;;;;26.28;76.14;99265.81;107295;1261;124781;-91
2023/08/06 12:35:26;;;;;;;;;;;;;;;26.16;75.95;99270.36;107460;1260;66351;-85
2023/08/06 12:37:54;;;;;;;;;;;;;;;25.95;75.52;99269.89;107213;1261;126081;-85
2023/08/06 12:40:36;;;;;;;;;;;;;;;25.77;75.43;99259.27;107340;1260;61372;-85
2023/08/06 12:43:03;;;;;;;;;;;;;;;25.69;75.89;99257.05;107643;1260;60356;-84
2023/08/06 12:45:30;;;;;;;;;;;;;;;25.63;75.88;99254.73;107457;1264;124145;-85
2023/08/06 12:47:59;;;;;;;;;;;;;;;25.55;75.80;99243.56;107866;1260;67289;-85
2023/08/06 12:50:26;;;;;;;;;;;;;;;25.52;75.93;99244.81;107146;1264;123894;-84
2023/08/06 12:52:53;;;;;;;;;;;;;;;25.58;76.03;99237.96;107814;1259;59454;-85
2023/08/06 12:55:30;;;;;;;;;;;;;;;25.58;75.79;99230.58;108084;1259;61218;-95
2023/08/06 12:57:58;;;;;;;;;;;;;;;25.68;76.15;99227.98;107536;1261;124355;-83
2023/08/06 13:03:49;;;;;;;;;;;;;;;25.81;75.84;99221.64;106990;1266;124922;-88
2023/08/06 13:06:22;;;;;;;;;;;;;;;25.91;75.45;99221.61;106804;1269;59403;-90
2023/08/06 13:08:59;;;;;;;;;;;;;;;25.98;75.36;99213.96;107031;1271;123544;-89
2023/08/06 13:11:32;;;;;;;;;;;;;;;26.01;75.12;99213.95;107593;1268;75058;-91
2023/08/06 13:14:09;;;;;;;;;;;;;;;26.01;74.85;99209.10;107641;1267;123663;-93
2023/08/06 13:16:40;;;;;;;;;;;;;;;26.06;74.67;99204.28;107048;1271;72431;-88
2023/08/06 13:25:42;;;;;;;;;;;;;;;25.78;73.89;99186.42;106792;1268;74454;-89
2023/08/06 13:28:09;;;;;;;;;;;;;;;25.58;74.15;99187.47;106714;1267;67174;-87
2023/08/06 13:30:55;;;;;;;;;;;;;;;25.45;74.19;99189.39;106551;1267;71400;-91
2023/08/06 13:33:29;;;;;;;;;;;;;;;25.34;74.76;99180.17;106672;1268;124676;-86
2023/08/06 13:36:02;;;;;;;;;;;;;;;25.25;74.84;99167.41;106740;1267;61402;-86
2023/08/06 13:39:00;;;;;;;;;;;;;;;25.26;75.00;99166.11;106819;1270;124861;-91
2023/08/06 13:41:35;;;;;;;;;;;;;;;25.18;74.85;99154.36;107457;1260;65883;-89
2023/08/06 13:44:35;;;;;;;;;;;;;;;25.14;75.31;99149.05;107209;1265;123817;-91
2023/08/06 13:50:47;;;;;;;;;;;;;;;25.14;75.39;99150.46;107264;1261;124642;-87
2023/08/06 13:53:15;;;;;;;;;;;;;;;25.17;75.43;99160.33;107211;1262;74558;-90
2023/08/06 13:55:42;;;;;;;;;;;;;;;25.20;75.33;99158.38;107292;1266;67059;-89
2023/08/06 13:58:12;;;;;;;;;;;;;;;25.25;75.48;99153.44;107432;1260;71721;-89
2023/08/06 14:00:39;;;;;;;;;;;;;;;25.40;75.73;99152.13;107388;1266;59513;-88
2023/08/06 14:03:09;;;;;;;;;;;;;;;25.52;75.22;99150.35;107336;1261;124661;-91
2023/08/06 14:09:18;;;;;;;;;;;;;;;25.69;74.78;99123.64;107064;1260;124581;-88
2023/08/06 14:11:47;;;;;;;;;;;;;;;25.70;74.57;99117.02;107464;1259;73250;-92
2023/08/06 14:14:40;;;;;;;;;;;;;;;25.70;74.54;99115.77;107494;1260;125082;-90
2023/08/06 14:17:12;;;;;;;;;;;;;;;25.70;74.09;99127.30;107657;1260;61323;-91
2023/08/06 14:19:42;;;;;;;;;;;;;;;25.57;74.01;99125.23;107730;1263;74757;-90
2023/08/06 14:25:33;;;;;;;;;;;;;;;25.23;74.16;99114.20;107229;1259;71405;-85
2023/08/06 14:28:06;;;;;;;;;;;;;;;25.04;74.31;99104.79;107078;1266;125342;-87
2023/08/06 14:30:35;;;;;;;;;;;;;;;24.82;74.54;99085.27;107154;1265;61127;-88
2023/08/06 14:33:38;;;;;;;;;;;;;;;;;;;;;
2023/08/06 14:36:43;;;;;;;;;;;;;;;24.33;75.05;99093.34;106927;1267;66399;-85
2023/08/06 14:39:11;;;;;;;;;;;;;;;24.19;75.59;99091.64;106787;1267;125172;-83
2023/08/06 14:41:44;;;;;;;;;;;;;;;24.00;75.95;99099.16;106971;1267;61163;-85
2023/08/06 14:47:43;;;;;;;;;;;;;;;23.66;76.94;99103.20;106222;1272;74477;-86
2023/08/06 14:56:57;;;;;;;;;;;;;;;23.26;78.04;99119.34;107041;1267;125321;-86
2023/08/06 14:59:34;;;;;;;;;;;;;;;23.18;78.38;99107.80;106873;1267;61327;-86